sensor_id;sensor_type;location;lat;lon;timestamp;P1;durP1;ratioP1;P2;durP2;ratioP2
75937;SDS011;64615;32.062;34.834;2023-11-18T00:01:20;16.95;;;7.85;;
75937;SDS011;64615;32.062;34.834;2023-11-18T00:03:46;15.80;;;7.55;;
75937;SDS011;64615;32.062;34.834;2023-11-18T00:06:11;16.02;;;8.25;;
75937;SDS011;64615;32.062;34.834;2023-11-18T00:08:38;14.48;;;7.63;;
75937;SDS011;64615;32.062;34.834;2023-11-18T00:11:04;18.88;;;8.32;;
75937;SDS011;64615;32.062;34.834;2023-11-18T00:13:30;15.05;;;8.00;;
75937;SDS011;64615;32.062;34.834;2023-11-18T00:15:55;17.77;;;8.23;;
75937;SDS011;64615;32.062;34.834;2023-11-18T00:18:22;17.20;;;8.13;;
75937;SDS011;64615;32.062;34.834;2023-11-18T00:20:48;19.40;;;8.68;;
75937;SDS011;64615;32.062;34.834;2023-11-18T00:23:16;17.38;;;7.68;;
75937;SDS011;64615;32.062;34.834;2023-11-18T00:25:42;15.45;;;8.15;;
75937;SDS011;64615;32.062;34.834;2023-11-18T00:28:10;17.15;;;7.85;;
75937;SDS011;64615;32.062;34.834;2023-11-18T00:30:36;14.57;;;7.60;;
75937;SDS011;64615;32.062;34.834;2023-11-18T00:33:02;18.08;;;8.77;;
75937;SDS011;64615;32.062;34.834;2023-11-18T00:35:28;14.68;;;7.80;;
75937;SDS011;64615;32.062;34.834;2023-11-18T00:37:57;16.30;;;8.25;;
75937;SDS011;64615;32.062;34.834;2023-11-18T00:40:24;14.50;;;7.57;;
75937;SDS011;64615;32.062;34.834;2023-11-18T00:42:50;15.30;;;7.85;;
75937;SDS011;64615;32.062;34.834;2023-11-18T00:45:15;17.27;;;8.00;;
75937;SDS011;64615;32.062;34.834;2023-11-18T00:47:41;16.20;;;8.07;;
75937;SDS011;64615;32.062;34.834;2023-11-18T00:50:07;14.48;;;7.63;;
75937;SDS011;64615;32.062;34.834;2023-11-18T00:52:36;15.88;;;7.88;;
75937;SDS011;64615;32.062;34.834;2023-11-18T00:55:07;17.92;;;7.90;;
75937;SDS011;64615;32.062;34.834;2023-11-18T00:57:34;16.33;;;7.93;;
75937;SDS011;64615;32.062;34.834;2023-11-18T01:00:00;14.95;;;7.22;;
75937;SDS011;64615;32.062;34.834;2023-11-18T01:02:25;17.50;;;7.68;;
75937;SDS011;64615;32.062;34.834;2023-11-18T01:04:52;13.82;;;7.40;;
75937;SDS011;64615;32.062;34.834;2023-11-18T01:07:18;14.13;;;7.45;;
75937;SDS011;64615;32.062;34.834;2023-11-18T01:09:44;12.93;;;7.47;;
75937;SDS011;64615;32.062;34.834;2023-11-18T01:12:10;15.25;;;7.35;;
75937;SDS011;64615;32.062;34.834;2023-11-18T01:14:36;15.57;;;8.07;;
75937;SDS011;64615;32.062;34.834;2023-11-18T01:17:03;15.15;;;7.68;;
75937;SDS011;64615;32.062;34.834;2023-11-18T01:19:30;14.38;;;7.10;;
75937;SDS011;64615;32.062;34.834;2023-11-18T01:21:56;14.02;;;6.57;;
75937;SDS011;64615;32.062;34.834;2023-11-18T01:24:21;14.60;;;8.13;;
75937;SDS011;64615;32.062;34.834;2023-11-18T01:26:47;13.80;;;7.30;;
75937;SDS011;64615;32.062;34.834;2023-11-18T01:29:13;15.35;;;6.95;;
75937;SDS011;64615;32.062;34.834;2023-11-18T01:31:38;14.70;;;7.43;;
75937;SDS011;64615;32.062;34.834;2023-11-18T01:34:07;17.23;;;7.88;;
75937;SDS011;64615;32.062;34.834;2023-11-18T01:36:33;17.27;;;7.63;;
75937;SDS011;64615;32.062;34.834;2023-11-18T01:38:59;12.68;;;6.85;;
75937;SDS011;64615;32.062;34.834;2023-11-18T01:41:25;13.95;;;7.55;;
75937;SDS011;64615;32.062;34.834;2023-11-18T01:43:51;14.23;;;7.47;;
75937;SDS011;64615;32.062;34.834;2023-11-18T01:46:18;14.05;;;7.18;;
75937;SDS011;64615;32.062;34.834;2023-11-18T01:48:46;15.68;;;7.82;;
75937;SDS011;64615;32.062;34.834;2023-11-18T01:51:12;15.57;;;7.20;;
75937;SDS011;64615;32.062;34.834;2023-11-18T01:53:39;20.42;;;7.40;;
75937;SDS011;64615;32.062;34.834;2023-11-18T01:56:09;14.95;;;7.65;;
75937;SDS011;64615;32.062;34.834;2023-11-18T01:58:37;13.55;;;6.88;;
75937;SDS011;64615;32.062;34.834;2023-11-18T02:01:02;14.02;;;7.07;;
75937;SDS011;64615;32.062;34.834;2023-11-18T02:03:35;15.93;;;7.32;;
75937;SDS011;64615;32.062;34.834;2023-11-18T02:06:03;14.48;;;7.20;;
75937;SDS011;64615;32.062;34.834;2023-11-18T02:08:30;17.77;;;7.43;;
75937;SDS011;64615;32.062;34.834;2023-11-18T02:13:56;15.65;;;7.20;;
75937;SDS011;64615;32.062;34.834;2023-11-18T02:16:29;13.48;;;6.57;;
75937;SDS011;64615;32.062;34.834;2023-11-18T02:18:57;16.77;;;7.43;;
75937;SDS011;64615;32.062;34.834;2023-11-18T02:21:24;14.43;;;6.95;;
75937;SDS011;64615;32.062;34.834;2023-11-18T02:23:51;12.05;;;6.50;;
75937;SDS011;64615;32.062;34.834;2023-11-18T02:26:23;15.27;;;7.00;;
75937;SDS011;64615;32.062;34.834;2023-11-18T02:28:48;12.55;;;6.90;;
75937;SDS011;64615;32.062;34.834;2023-11-18T02:31:20;14.40;;;7.00;;
75937;SDS011;64615;32.062;34.834;2023-11-18T02:33:54;15.30;;;6.82;;
75937;SDS011;64615;32.062;34.834;2023-11-18T02:36:43;11.32;;;6.13;;
75937;SDS011;64615;32.062;34.834;2023-11-18T02:39:12;12.70;;;6.45;;
75937;SDS011;64615;32.062;34.834;2023-11-18T02:41:51;14.20;;;7.20;;
75937;SDS011;64615;32.062;34.834;2023-11-18T02:44:18;11.95;;;6.25;;
75937;SDS011;64615;32.062;34.834;2023-11-18T02:46:48;12.82;;;6.72;;
75937;SDS011;64615;32.062;34.834;2023-11-18T02:49:14;15.57;;;6.05;;
75937;SDS011;64615;32.062;34.834;2023-11-18T02:51:40;15.00;;;6.28;;
75937;SDS011;64615;32.062;34.834;2023-11-18T02:54:06;14.23;;;6.60;;
75937;SDS011;64615;32.062;34.834;2023-11-18T02:56:35;11.80;;;6.25;;
75937;SDS011;64615;32.062;34.834;2023-11-18T02:59:04;12.88;;;6.20;;
75937;SDS011;64615;32.062;34.834;2023-11-18T03:01:31;11.30;;;6.10;;
75937;SDS011;64615;32.062;34.834;2023-11-18T03:03:58;12.15;;;6.25;;
75937;SDS011;64615;32.062;34.834;2023-11-18T03:06:24;11.82;;;5.88;;
75937;SDS011;64615;32.062;34.834;2023-11-18T03:08:51;12.85;;;5.72;;
75937;SDS011;64615;32.062;34.834;2023-11-18T03:11:18;11.73;;;5.53;;
75937;SDS011;64615;32.062;34.834;2023-11-18T03:13:44;13.88;;;5.82;;
75937;SDS011;64615;32.062;34.834;2023-11-18T03:16:11;17.17;;;5.88;;
75937;SDS011;64615;32.062;34.834;2023-11-18T03:18:38;11.98;;;5.40;;
75937;SDS011;64615;32.062;34.834;2023-11-18T03:21:05;10.48;;;5.57;;
75937;SDS011;64615;32.062;34.834;2023-11-18T03:23:37;11.38;;;6.07;;
75937;SDS011;64615;32.062;34.834;2023-11-18T03:26:03;14.18;;;5.65;;
75937;SDS011;64615;32.062;34.834;2023-11-18T03:28:30;11.23;;;5.38;;
75937;SDS011;64615;32.062;34.834;2023-11-18T03:30:56;12.05;;;5.75;;
75937;SDS011;64615;32.062;34.834;2023-11-18T03:33:22;12.20;;;5.40;;
75937;SDS011;64615;32.062;34.834;2023-11-18T03:35:48;11.23;;;6.10;;
75937;SDS011;64615;32.062;34.834;2023-11-18T03:38:14;12.68;;;5.85;;
75937;SDS011;64615;32.062;34.834;2023-11-18T03:40:42;12.52;;;5.70;;
75937;SDS011;64615;32.062;34.834;2023-11-18T03:43:10;9.50;;;5.07;;
75937;SDS011;64615;32.062;34.834;2023-11-18T03:45:39;10.88;;;5.50;;
75937;SDS011;64615;32.062;34.834;2023-11-18T03:48:06;12.35;;;5.43;;
75937;SDS011;64615;32.062;34.834;2023-11-18T03:50:32;12.60;;;5.57;;
75937;SDS011;64615;32.062;34.834;2023-11-18T03:52:58;12.25;;;5.93;;
75937;SDS011;64615;32.062;34.834;2023-11-18T03:55:24;13.13;;;5.78;;
75937;SDS011;64615;32.062;34.834;2023-11-18T03:57:53;11.48;;;5.50;;
75937;SDS011;64615;32.062;34.834;2023-11-18T04:00:19;11.52;;;5.75;;
75937;SDS011;64615;32.062;34.834;2023-11-18T04:02:48;12.32;;;5.55;;
75937;SDS011;64615;32.062;34.834;2023-11-18T04:05:13;11.70;;;5.05;;
75937;SDS011;64615;32.062;34.834;2023-11-18T04:07:40;11.63;;;5.53;;
75937;SDS011;64615;32.062;34.834;2023-11-18T04:10:08;11.88;;;4.97;;
75937;SDS011;64615;32.062;34.834;2023-11-18T04:12:38;11.50;;;6.07;;
75937;SDS011;64615;32.062;34.834;2023-11-18T04:15:04;9.68;;;5.10;;
75937;SDS011;64615;32.062;34.834;2023-11-18T04:17:31;12.43;;;5.90;;
75937;SDS011;64615;32.062;34.834;2023-11-18T04:19:57;9.55;;;5.05;;
75937;SDS011;64615;32.062;34.834;2023-11-18T04:22:23;12.57;;;5.90;;
75937;SDS011;64615;32.062;34.834;2023-11-18T04:24:49;10.13;;;5.13;;
75937;SDS011;64615;32.062;34.834;2023-11-18T04:27:15;11.95;;;5.72;;
75937;SDS011;64615;32.062;34.834;2023-11-18T04:29:41;12.50;;;5.45;;
75937;SDS011;64615;32.062;34.834;2023-11-18T04:32:07;10.75;;;5.07;;
75937;SDS011;64615;32.062;34.834;2023-11-18T04:34:44;10.82;;;5.43;;
75937;SDS011;64615;32.062;34.834;2023-11-18T04:37:10;11.73;;;5.57;;
75937;SDS011;64615;32.062;34.834;2023-11-18T04:39:35;12.55;;;6.03;;
75937;SDS011;64615;32.062;34.834;2023-11-18T04:42:02;10.60;;;5.20;;
75937;SDS011;64615;32.062;34.834;2023-11-18T04:44:28;10.65;;;5.68;;
75937;SDS011;64615;32.062;34.834;2023-11-18T04:46:56;12.80;;;5.68;;
75937;SDS011;64615;32.062;34.834;2023-11-18T04:49:22;14.75;;;5.43;;
75937;SDS011;64615;32.062;34.834;2023-11-18T04:51:47;12.65;;;5.70;;
75937;SDS011;64615;32.062;34.834;2023-11-18T04:54:13;14.07;;;4.82;;
75937;SDS011;64615;32.062;34.834;2023-11-18T04:56:39;14.05;;;4.93;;
75937;SDS011;64615;32.062;34.834;2023-11-18T04:59:05;11.07;;;4.97;;
75937;SDS011;64615;32.062;34.834;2023-11-18T05:01:35;11.48;;;4.90;;
75937;SDS011;64615;32.062;34.834;2023-11-18T05:04:02;12.30;;;4.65;;
75937;SDS011;64615;32.062;34.834;2023-11-18T05:06:27;11.15;;;5.30;;
75937;SDS011;64615;32.062;34.834;2023-11-18T05:08:53;12.13;;;4.70;;
75937;SDS011;64615;32.062;34.834;2023-11-18T05:11:19;11.55;;;4.90;;
75937;SDS011;64615;32.062;34.834;2023-11-18T05:13:45;11.80;;;4.85;;
75937;SDS011;64615;32.062;34.834;2023-11-18T05:16:11;12.15;;;4.72;;
75937;SDS011;64615;32.062;34.834;2023-11-18T05:18:36;11.73;;;5.40;;
75937;SDS011;64615;32.062;34.834;2023-11-18T05:21:04;11.15;;;5.53;;
75937;SDS011;64615;32.062;34.834;2023-11-18T05:23:30;10.65;;;5.20;;
75937;SDS011;64615;32.062;34.834;2023-11-18T05:25:59;12.55;;;5.15;;
75937;SDS011;64615;32.062;34.834;2023-11-18T05:28:25;12.80;;;5.03;;
75937;SDS011;64615;32.062;34.834;2023-11-18T05:30:50;13.00;;;5.38;;
75937;SDS011;64615;32.062;34.834;2023-11-18T05:33:17;14.50;;;5.20;;
75937;SDS011;64615;32.062;34.834;2023-11-18T05:35:46;9.85;;;4.70;;
75937;SDS011;64615;32.062;34.834;2023-11-18T05:38:15;14.45;;;5.78;;
75937;SDS011;64615;32.062;34.834;2023-11-18T05:40:47;10.70;;;5.28;;
75937;SDS011;64615;32.062;34.834;2023-11-18T05:43:25;13.95;;;5.93;;
75937;SDS011;64615;32.062;34.834;2023-11-18T05:46:01;13.55;;;5.28;;
75937;SDS011;64615;32.062;34.834;2023-11-18T05:48:43;12.05;;;5.15;;
75937;SDS011;64615;32.062;34.834;2023-11-18T05:51:10;10.35;;;5.53;;
75937;SDS011;64615;32.062;34.834;2023-11-18T05:53:39;12.43;;;5.40;;
75937;SDS011;64615;32.062;34.834;2023-11-18T05:56:16;12.77;;;5.50;;
75937;SDS011;64615;32.062;34.834;2023-11-18T05:58:42;12.98;;;5.35;;
75937;SDS011;64615;32.062;34.834;2023-11-18T06:01:11;11.13;;;5.22;;
75937;SDS011;64615;32.062;34.834;2023-11-18T06:03:38;11.32;;;5.38;;
75937;SDS011;64615;32.062;34.834;2023-11-18T06:06:07;15.95;;;5.63;;
75937;SDS011;64615;32.062;34.834;2023-11-18T06:08:35;15.07;;;5.43;;
75937;SDS011;64615;32.062;34.834;2023-11-18T06:11:02;11.82;;;5.60;;
75937;SDS011;64615;32.062;34.834;2023-11-18T06:13:38;11.95;;;5.53;;
75937;SDS011;64615;32.062;34.834;2023-11-18T06:18:41;15.88;;;5.55;;
75937;SDS011;64615;32.062;34.834;2023-11-18T06:21:19;12.40;;;5.15;;
75937;SDS011;64615;32.062;34.834;2023-11-18T06:23:46;12.38;;;6.03;;
75937;SDS011;64615;32.062;34.834;2023-11-18T06:26:13;11.27;;;4.85;;
75937;SDS011;64615;32.062;34.834;2023-11-18T06:28:43;12.15;;;5.32;;
75937;SDS011;64615;32.062;34.834;2023-11-18T06:31:09;12.73;;;5.43;;
75937;SDS011;64615;32.062;34.834;2023-11-18T06:33:42;10.57;;;5.22;;
75937;SDS011;64615;32.062;34.834;2023-11-18T06:36:18;10.80;;;4.85;;
75937;SDS011;64615;32.062;34.834;2023-11-18T06:38:44;12.77;;;5.80;;
75937;SDS011;64615;32.062;34.834;2023-11-18T06:41:11;11.75;;;5.20;;
75937;SDS011;64615;32.062;34.834;2023-11-18T06:43:41;11.27;;;4.78;;
75937;SDS011;64615;32.062;34.834;2023-11-18T06:46:24;10.43;;;5.28;;
75937;SDS011;64615;32.062;34.834;2023-11-18T06:49:02;11.25;;;5.22;;
75937;SDS011;64615;32.062;34.834;2023-11-18T06:51:32;16.05;;;5.10;;
75937;SDS011;64615;32.062;34.834;2023-11-18T06:54:03;12.02;;;4.93;;
75937;SDS011;64615;32.062;34.834;2023-11-18T06:56:37;12.25;;;5.05;;
75937;SDS011;64615;32.062;34.834;2023-11-18T06:59:06;8.05;;;4.28;;
75937;SDS011;64615;32.062;34.834;2023-11-18T07:01:35;13.02;;;5.00;;
75937;SDS011;64615;32.062;34.834;2023-11-18T07:04:01;9.18;;;4.32;;
75937;SDS011;64615;32.062;34.834;2023-11-18T07:06:27;9.80;;;4.35;;
75937;SDS011;64615;32.062;34.834;2023-11-18T07:08:53;10.05;;;4.60;;
75937;SDS011;64615;32.062;34.834;2023-11-18T07:11:25;11.05;;;4.28;;
75937;SDS011;64615;32.062;34.834;2023-11-18T07:13:51;8.20;;;4.13;;
75937;SDS011;64615;32.062;34.834;2023-11-18T07:16:22;9.70;;;4.05;;
75937;SDS011;64615;32.062;34.834;2023-11-18T07:18:49;11.82;;;3.85;;
75937;SDS011;64615;32.062;34.834;2023-11-18T07:21:14;9.90;;;4.15;;
75937;SDS011;64615;32.062;34.834;2023-11-18T07:23:40;11.50;;;3.97;;
75937;SDS011;64615;32.062;34.834;2023-11-18T07:26:07;10.98;;;3.50;;
75937;SDS011;64615;32.062;34.834;2023-11-18T07:28:35;11.00;;;3.85;;
75937;SDS011;64615;32.062;34.834;2023-11-18T07:31:01;10.90;;;3.85;;
75937;SDS011;64615;32.062;34.834;2023-11-18T07:33:30;10.10;;;4.07;;
75937;SDS011;64615;32.062;34.834;2023-11-18T07:35:58;11.63;;;4.15;;
75937;SDS011;64615;32.062;34.834;2023-11-18T07:38:24;9.70;;;3.90;;
75937;SDS011;64615;32.062;34.834;2023-11-18T07:40:52;9.15;;;3.47;;
75937;SDS011;64615;32.062;34.834;2023-11-18T07:43:21;9.65;;;3.50;;
75937;SDS011;64615;32.062;34.834;2023-11-18T07:45:48;10.93;;;3.40;;
75937;SDS011;64615;32.062;34.834;2023-11-18T07:48:20;9.50;;;3.55;;
75937;SDS011;64615;32.062;34.834;2023-11-18T07:50:46;7.38;;;3.35;;
75937;SDS011;64615;32.062;34.834;2023-11-18T07:53:12;10.73;;;3.45;;
75937;SDS011;64615;32.062;34.834;2023-11-18T07:55:38;8.20;;;3.67;;
75937;SDS011;64615;32.062;34.834;2023-11-18T07:58:07;7.53;;;3.38;;
75937;SDS011;64615;32.062;34.834;2023-11-18T08:00:37;7.20;;;3.55;;
75937;SDS011;64615;32.062;34.834;2023-11-18T08:03:06;7.43;;;3.35;;
75937;SDS011;64615;32.062;34.834;2023-11-18T08:05:37;11.10;;;3.22;;
75937;SDS011;64615;32.062;34.834;2023-11-18T08:08:05;9.23;;;2.90;;
75937;SDS011;64615;32.062;34.834;2023-11-18T08:10:32;8.80;;;3.28;;
75937;SDS011;64615;32.062;34.834;2023-11-18T08:12:58;7.55;;;2.83;;
75937;SDS011;64615;32.062;34.834;2023-11-18T08:15:24;7.70;;;3.03;;
75937;SDS011;64615;32.062;34.834;2023-11-18T08:17:52;10.32;;;3.22;;
75937;SDS011;64615;32.062;34.834;2023-11-18T08:20:18;9.00;;;3.45;;
75937;SDS011;64615;32.062;34.834;2023-11-18T08:22:48;9.40;;;2.85;;
75937;SDS011;64615;32.062;34.834;2023-11-18T08:25:14;9.63;;;3.17;;
75937;SDS011;64615;32.062;34.834;2023-11-18T08:27:40;8.85;;;3.25;;
75937;SDS011;64615;32.062;34.834;2023-11-18T08:30:06;7.60;;;2.95;;
75937;SDS011;64615;32.062;34.834;2023-11-18T08:32:41;7.13;;;3.03;;
75937;SDS011;64615;32.062;34.834;2023-11-18T08:35:13;7.90;;;2.90;;
75937;SDS011;64615;32.062;34.834;2023-11-18T08:37:39;7.65;;;3.08;;
75937;SDS011;64615;32.062;34.834;2023-11-18T08:40:07;5.97;;;2.60;;
75937;SDS011;64615;32.062;34.834;2023-11-18T08:42:50;8.18;;;3.25;;
75937;SDS011;64615;32.062;34.834;2023-11-18T08:45:19;12.30;;;3.70;;
75937;SDS011;64615;32.062;34.834;2023-11-18T08:47:58;10.10;;;3.50;;
75937;SDS011;64615;32.062;34.834;2023-11-18T08:50:36;7.03;;;2.80;;
75937;SDS011;64615;32.062;34.834;2023-11-18T08:53:05;6.07;;;2.67;;
75937;SDS011;64615;32.062;34.834;2023-11-18T08:55:34;7.00;;;3.03;;
75937;SDS011;64615;32.062;34.834;2023-11-18T08:58:07;8.55;;;3.05;;
75937;SDS011;64615;32.062;34.834;2023-11-18T09:00:43;9.25;;;3.13;;
75937;SDS011;64615;32.062;34.834;2023-11-18T09:05:49;6.82;;;2.72;;
75937;SDS011;64615;32.062;34.834;2023-11-18T09:08:24;9.90;;;3.03;;
75937;SDS011;64615;32.062;34.834;2023-11-18T09:10:55;6.03;;;2.42;;
75937;SDS011;64615;32.062;34.834;2023-11-18T09:13:24;7.80;;;2.78;;
75937;SDS011;64615;32.062;34.834;2023-11-18T09:15:55;5.78;;;2.42;;
75937;SDS011;64615;32.062;34.834;2023-11-18T09:18:28;7.63;;;2.60;;
75937;SDS011;64615;32.062;34.834;2023-11-18T09:20:55;5.75;;;2.70;;
75937;SDS011;64615;32.062;34.834;2023-11-18T09:23:24;8.43;;;2.53;;
75937;SDS011;64615;32.062;34.834;2023-11-18T09:25:52;6.35;;;2.60;;
75937;SDS011;64615;32.062;34.834;2023-11-18T09:28:23;7.40;;;2.70;;
75937;SDS011;64615;32.062;34.834;2023-11-18T09:30:49;6.60;;;2.50;;
75937;SDS011;64615;32.062;34.834;2023-11-18T09:33:21;6.25;;;2.55;;
75937;SDS011;64615;32.062;34.834;2023-11-18T09:38:33;9.18;;;2.70;;
75937;SDS011;64615;32.062;34.834;2023-11-18T09:43:34;7.45;;;2.58;;
75937;SDS011;64615;32.062;34.834;2023-11-18T09:46:16;8.75;;;2.42;;
75937;SDS011;64615;32.062;34.834;2023-11-18T09:48:52;6.80;;;2.35;;
75937;SDS011;64615;32.062;34.834;2023-11-18T09:51:27;8.27;;;2.80;;
75937;SDS011;64615;32.062;34.834;2023-11-18T09:54:02;9.20;;;2.80;;
75937;SDS011;64615;32.062;34.834;2023-11-18T09:57:08;7.15;;;2.50;;
75937;SDS011;64615;32.062;34.834;2023-11-18T10:02:52;9.95;;;2.67;;
75937;SDS011;64615;32.062;34.834;2023-11-18T10:05:20;8.82;;;2.42;;
75937;SDS011;64615;32.062;34.834;2023-11-18T10:07:47;6.28;;;2.42;;
75937;SDS011;64615;32.062;34.834;2023-11-18T10:10:14;8.88;;;2.53;;
75937;SDS011;64615;32.062;34.834;2023-11-18T10:12:43;8.85;;;2.60;;
75937;SDS011;64615;32.062;34.834;2023-11-18T10:15:20;8.52;;;2.88;;
75937;SDS011;64615;32.062;34.834;2023-11-18T10:17:53;6.30;;;2.42;;
75937;SDS011;64615;32.062;34.834;2023-11-18T10:20:44;9.23;;;2.75;;
75937;SDS011;64615;32.062;34.834;2023-11-18T10:23:15;6.63;;;2.33;;
75937;SDS011;64615;32.062;34.834;2023-11-18T10:25:49;7.03;;;2.30;;
75937;SDS011;64615;32.062;34.834;2023-11-18T10:28:32;8.00;;;2.42;;
75937;SDS011;64615;32.062;34.834;2023-11-18T10:30:59;7.80;;;2.40;;
75937;SDS011;64615;32.062;34.834;2023-11-18T10:33:33;9.13;;;2.60;;
75937;SDS011;64615;32.062;34.834;2023-11-18T10:36:01;7.65;;;2.50;;
75937;SDS011;64615;32.062;34.834;2023-11-18T10:38:33;7.07;;;2.50;;
75937;SDS011;64615;32.062;34.834;2023-11-18T10:41:08;5.18;;;2.40;;
75937;SDS011;64615;32.062;34.834;2023-11-18T10:43:34;5.93;;;2.40;;
75937;SDS011;64615;32.062;34.834;2023-11-18T10:46:13;7.20;;;2.63;;
75937;SDS011;64615;32.062;34.834;2023-11-18T10:48:40;6.47;;;2.17;;
75937;SDS011;64615;32.062;34.834;2023-11-18T10:51:13;7.70;;;2.55;;
75937;SDS011;64615;32.062;34.834;2023-11-18T10:53:41;6.45;;;2.38;;
75937;SDS011;64615;32.062;34.834;2023-11-18T10:56:18;9.07;;;2.78;;
75937;SDS011;64615;32.062;34.834;2023-11-18T10:58:49;9.38;;;2.20;;
75937;SDS011;64615;32.062;34.834;2023-11-18T11:01:26;7.00;;;2.50;;
75937;SDS011;64615;32.062;34.834;2023-11-18T11:03:57;7.60;;;2.50;;
75937;SDS011;64615;32.062;34.834;2023-11-18T11:06:26;8.80;;;2.45;;
75937;SDS011;64615;32.062;34.834;2023-11-18T11:08:55;6.97;;;2.40;;
75937;SDS011;64615;32.062;34.834;2023-11-18T11:11:26;8.60;;;2.40;;
75937;SDS011;64615;32.062;34.834;2023-11-18T11:16:32;5.53;;;2.38;;
75937;SDS011;64615;32.062;34.834;2023-11-18T11:19:14;8.45;;;2.90;;
75937;SDS011;64615;32.062;34.834;2023-11-18T11:22:09;8.77;;;3.05;;
75937;SDS011;64615;32.062;34.834;2023-11-18T11:27:55;8.65;;;3.08;;
75937;SDS011;64615;32.062;34.834;2023-11-18T11:35:55;8.02;;;3.33;;
75937;SDS011;64615;32.062;34.834;2023-11-18T11:38:25;9.88;;;3.55;;
75937;SDS011;64615;32.062;34.834;2023-11-18T11:40:54;14.43;;;3.72;;
75937;SDS011;64615;32.062;34.834;2023-11-18T11:43:20;11.55;;;4.45;;
75937;SDS011;64615;32.062;34.834;2023-11-18T11:45:48;12.90;;;4.65;;
75937;SDS011;64615;32.062;34.834;2023-11-18T11:48:17;10.95;;;3.90;;
75937;SDS011;64615;32.062;34.834;2023-11-18T11:54:12;12.70;;;4.32;;
75937;SDS011;64615;32.062;34.834;2023-11-18T11:56:49;10.93;;;4.00;;
75937;SDS011;64615;32.062;34.834;2023-11-18T12:02:12;10.77;;;3.75;;
75937;SDS011;64615;32.062;34.834;2023-11-18T12:04:50;10.60;;;3.58;;
75937;SDS011;64615;32.062;34.834;2023-11-18T12:07:19;12.45;;;3.70;;
75937;SDS011;64615;32.062;34.834;2023-11-18T12:09:48;10.80;;;3.40;;
75937;SDS011;64615;32.062;34.834;2023-11-18T12:12:23;11.52;;;3.50;;
75937;SDS011;64615;32.062;34.834;2023-11-18T12:14:55;10.00;;;3.38;;
75937;SDS011;64615;32.062;34.834;2023-11-18T12:23:09;11.50;;;3.67;;
75937;SDS011;64615;32.062;34.834;2023-11-18T12:25:43;8.77;;;3.50;;
75937;SDS011;64615;32.062;34.834;2023-11-18T12:28:27;8.85;;;3.50;;
75937;SDS011;64615;32.062;34.834;2023-11-18T12:30:56;12.30;;;3.55;;
75937;SDS011;64615;32.062;34.834;2023-11-18T12:33:25;9.13;;;3.17;;
75937;SDS011;64615;32.062;34.834;2023-11-18T12:39:20;10.88;;;3.20;;
75937;SDS011;64615;32.062;34.834;2023-11-18T12:42:12;9.05;;;3.00;;
75937;SDS011;64615;32.062;34.834;2023-11-18T12:47:31;6.22;;;2.60;;
75937;SDS011;64615;32.062;34.834;2023-11-18T12:50:06;7.53;;;3.00;;
75937;SDS011;64615;32.062;34.834;2023-11-18T12:52:42;7.10;;;2.70;;
75937;SDS011;64615;32.062;34.834;2023-11-18T12:55:09;8.85;;;3.03;;
75937;SDS011;64615;32.062;34.834;2023-11-18T12:57:46;9.95;;;2.75;;
75937;SDS011;64615;32.062;34.834;2023-11-18T13:00:13;9.35;;;3.05;;
75937;SDS011;64615;32.062;34.834;2023-11-18T13:02:52;9.57;;;2.95;;
75937;SDS011;64615;32.062;34.834;2023-11-18T13:05:19;8.30;;;2.80;;
75937;SDS011;64615;32.062;34.834;2023-11-18T13:07:45;9.98;;;2.80;;
75937;SDS011;64615;32.062;34.834;2023-11-18T13:10:12;9.32;;;3.08;;
75937;SDS011;64615;32.062;34.834;2023-11-18T13:12:41;6.38;;;2.50;;
75937;SDS011;64615;32.062;34.834;2023-11-18T13:15:08;5.22;;;2.30;;
75937;SDS011;64615;32.062;34.834;2023-11-18T13:17:34;10.43;;;2.90;;
75937;SDS011;64615;32.062;34.834;2023-11-18T13:20:13;9.52;;;2.92;;
75937;SDS011;64615;32.062;34.834;2023-11-18T13:22:39;6.85;;;2.63;;
75937;SDS011;64615;32.062;34.834;2023-11-18T13:25:07;7.50;;;2.92;;
75937;SDS011;64615;32.062;34.834;2023-11-18T13:27:32;7.25;;;2.55;;
75937;SDS011;64615;32.062;34.834;2023-11-18T13:29:58;11.02;;;3.00;;
75937;SDS011;64615;32.062;34.834;2023-11-18T13:32:24;8.00;;;2.95;;
75937;SDS011;64615;32.062;34.834;2023-11-18T13:34:51;6.90;;;2.50;;
75937;SDS011;64615;32.062;34.834;2023-11-18T13:37:17;7.60;;;2.70;;
75937;SDS011;64615;32.062;34.834;2023-11-18T13:39:56;5.78;;;2.60;;
75937;SDS011;64615;32.062;34.834;2023-11-18T13:42:25;7.03;;;2.53;;
75937;SDS011;64615;32.062;34.834;2023-11-18T13:45:05;6.28;;;2.50;;
75937;SDS011;64615;32.062;34.834;2023-11-18T13:47:34;6.35;;;2.60;;
75937;SDS011;64615;32.062;34.834;2023-11-18T13:50:05;5.97;;;2.35;;
75937;SDS011;64615;32.062;34.834;2023-11-18T13:52:32;5.97;;;2.40;;
75937;SDS011;64615;32.062;34.834;2023-11-18T13:54:58;7.28;;;2.40;;
75937;SDS011;64615;32.062;34.834;2023-11-18T13:57:25;6.82;;;2.20;;
75937;SDS011;64615;32.062;34.834;2023-11-18T13:59:51;5.70;;;2.10;;
75937;SDS011;64615;32.062;34.834;2023-11-18T14:02:17;6.10;;;2.03;;
75937;SDS011;64615;32.062;34.834;2023-11-18T14:04:43;5.35;;;1.83;;
75937;SDS011;64615;32.062;34.834;2023-11-18T14:07:09;7.15;;;2.10;;
75937;SDS011;64615;32.062;34.834;2023-11-18T14:09:37;7.68;;;2.20;;
75937;SDS011;64615;32.062;34.834;2023-11-18T14:12:06;4.53;;;1.92;;
75937;SDS011;64615;32.062;34.834;2023-11-18T14:14:33;4.63;;;1.98;;
75937;SDS011;64615;32.062;34.834;2023-11-18T14:16:59;6.22;;;2.00;;
75937;SDS011;64615;32.062;34.834;2023-11-18T14:19:25;5.07;;;1.90;;
75937;SDS011;64615;32.062;34.834;2023-11-18T14:21:51;5.68;;;2.20;;
75937;SDS011;64615;32.062;34.834;2023-11-18T14:24:17;7.80;;;1.95;;
75937;SDS011;64615;32.062;34.834;2023-11-18T14:26:43;5.30;;;1.80;;
75937;SDS011;64615;32.062;34.834;2023-11-18T14:29:09;6.05;;;1.92;;
75937;SDS011;64615;32.062;34.834;2023-11-18T14:31:37;5.60;;;1.90;;
75937;SDS011;64615;32.062;34.834;2023-11-18T14:34:03;6.63;;;2.03;;
75937;SDS011;64615;32.062;34.834;2023-11-18T14:36:29;5.78;;;1.88;;
75937;SDS011;64615;32.062;34.834;2023-11-18T14:38:55;6.25;;;2.20;;
75937;SDS011;64615;32.062;34.834;2023-11-18T14:41:21;5.68;;;2.10;;
75937;SDS011;64615;32.062;34.834;2023-11-18T14:43:51;6.45;;;2.22;;
75937;SDS011;64615;32.062;34.834;2023-11-18T14:46:19;5.13;;;2.70;;
75937;SDS011;64615;32.062;34.834;2023-11-18T14:48:45;6.90;;;2.85;;
75937;SDS011;64615;32.062;34.834;2023-11-18T14:51:11;7.28;;;2.45;;
75937;SDS011;64615;32.062;34.834;2023-11-18T14:53:37;10.05;;;2.60;;
75937;SDS011;64615;32.062;34.834;2023-11-18T14:56:03;6.43;;;2.83;;
75937;SDS011;64615;32.062;34.834;2023-11-18T14:58:31;5.07;;;2.45;;
75937;SDS011;64615;32.062;34.834;2023-11-18T15:01:03;6.32;;;2.58;;
75937;SDS011;64615;32.062;34.834;2023-11-18T15:03:32;5.53;;;2.53;;
75937;SDS011;64615;32.062;34.834;2023-11-18T15:05:58;5.65;;;2.33;;
75937;SDS011;64615;32.062;34.834;2023-11-18T15:08:24;6.10;;;2.75;;
75937;SDS011;64615;32.062;34.834;2023-11-18T15:10:49;7.72;;;2.85;;
75937;SDS011;64615;32.062;34.834;2023-11-18T15:13:16;6.80;;;2.85;;
75937;SDS011;64615;32.062;34.834;2023-11-18T15:15:42;12.90;;;3.30;;
75937;SDS011;64615;32.062;34.834;2023-11-18T15:20:41;8.35;;;3.10;;
75937;SDS011;64615;32.062;34.834;2023-11-18T15:23:10;6.15;;;2.95;;
75937;SDS011;64615;32.062;34.834;2023-11-18T15:25:36;10.75;;;3.13;;
75937;SDS011;64615;32.062;34.834;2023-11-18T15:28:02;7.72;;;3.20;;